createdAt,value
2023-03-24T00:00:21.696Z,99323.00
2023-03-24T00:02:51.497Z,99311.97
2023-03-24T00:05:22.829Z,99306.53
2023-03-24T00:07:55.081Z,99298.16
2023-03-24T00:10:25.878Z,99288.50
2023-03-24T00:12:54.720Z,99286.72
2023-03-24T00:15:24.126Z,99278.75
2023-03-24T00:17:53.277Z,99283.50
2023-03-24T00:20:23.798Z,99270.16
2023-03-24T00:22:57.958Z,99250.19
2023-03-24T00:25:33.973Z,99254.53
2023-03-24T00:28:03.072Z,99266.44
2023-03-24T00:30:31.944Z,99268.41
2023-03-24T00:33:02.121Z,99256.09
2023-03-24T00:35:30.710Z,99248.94
2023-03-24T00:37:59.135Z,99252.63
2023-03-24T00:40:29.589Z,99239.88
2023-03-24T00:42:59.218Z,99234.59
2023-03-24T00:45:29.490Z,99230.41
2023-03-24T00:47:58.225Z,99225.56
2023-03-24T00:50:27.682Z,99216.16
2023-03-24T00:52:58.547Z,99209.53
2023-03-24T00:55:32.157Z,99209.06
2023-03-24T00:58:01.205Z,99196.91
2023-03-24T01:00:29.775Z,99191.97
2023-03-24T01:02:58.917Z,99195.06
2023-03-24T01:05:30.300Z,99200.41
2023-03-24T01:08:03.112Z,99209.00
2023-03-24T01:10:35.208Z,99197.19
2023-03-24T01:13:03.968Z,99207.38
2023-03-24T01:19:04.702Z,99211.13
2023-03-24T01:21:35.122Z,99196.50
2023-03-24T01:24:05.225Z,99201.69
2023-03-24T01:26:36.640Z,99198.66
2023-03-24T01:29:05.148Z,99192.53
2023-03-24T01:31:33.579Z,99183.81
2023-03-24T01:34:02.149Z,99194.78
2023-03-24T01:36:32.036Z,99185.28
2023-03-24T01:39:01.469Z,99202.34
2023-03-24T01:41:34.713Z,99189.28
2023-03-24T01:44:03.270Z,99184.81
2023-03-24T01:46:33.430Z,99187.66
2023-03-24T01:49:04.337Z,99183.25
2023-03-24T01:51:36.486Z,99178.78
2023-03-24T01:54:12.851Z,99169.59
2023-03-24T01:56:46.668Z,99173.13
2023-03-24T01:59:19.900Z,99167.69
2023-03-24T02:02:08.268Z,99171.19
2023-03-24T02:04:54.277Z,99157.88
2023-03-24T02:07:35.280Z,99152.84
2023-03-24T02:10:08.644Z,99137.25
2023-03-24T02:12:36.923Z,99133.28
2023-03-24T02:15:09.381Z,99131.13
2023-03-24T02:17:54.880Z,99120.09
2023-03-24T02:20:47.289Z,99118.06
2023-03-24T02:24:07.042Z,99102.22
2023-03-24T02:26:50.788Z,99096.38
2023-03-24T02:29:43.720Z,99091.22
2023-03-24T02:32:31.291Z,99093.16
2023-03-24T02:35:34.158Z,99094.19
2023-03-24T02:38:46.838Z,99080.94
2023-03-24T02:41:25.230Z,99081.88
2023-03-24T02:44:04.432Z,99088.00
2023-03-24T02:46:38.593Z,99099.22
2023-03-24T02:49:20.452Z,99096.28
2023-03-24T02:51:54.151Z,99102.00
2023-03-24T02:54:29.632Z,99102.66
2023-03-24T02:57:06.431Z,99115.69
2023-03-24T02:59:59.002Z,99114.44
2023-03-24T03:02:51.745Z,99099.88
2023-03-24T03:05:27.610Z,99094.22
2023-03-24T03:07:59.890Z,99092.84
2023-03-24T03:10:33.248Z,99079.91
2023-03-24T03:13:05.897Z,99100.59
2023-03-24T03:15:39.178Z,99096.66
2023-03-24T03:18:11.465Z,99090.00
2023-03-24T03:20:51.046Z,99081.13
2023-03-24T03:23:25.707Z,99087.16
2023-03-24T03:26:04.049Z,99083.84
2023-03-24T03:28:35.275Z,99090.88
2023-03-24T03:31:10.599Z,99098.66
2023-03-24T03:33:46.771Z,99101.66
2023-03-24T03:36:19.551Z,99090.50
2023-03-24T03:38:55.356Z,99084.00
2023-03-24T03:41:24.068Z,99087.34
2023-03-24T03:43:54.409Z,99097.66
2023-03-24T03:46:23.396Z,99093.34
2023-03-24T03:48:52.233Z,99088.22
2023-03-24T03:51:26.568Z,99100.91
2023-03-24T03:54:01.065Z,99104.41
2023-03-24T03:56:34.681Z,99106.44
2023-03-24T03:59:30.402Z,99128.41
2023-03-24T04:02:04.776Z,99131.75
2023-03-24T04:05:21.698Z,99131.25
2023-03-24T04:08:37.587Z,99118.09
2023-03-24T04:11:37.277Z,99131.56
2023-03-24T04:14:27.120Z,99148.84
2023-03-24T04:17:42.752Z,99135.09
2023-03-24T04:20:21.346Z,99149.34
2023-03-24T04:23:09.304Z,99160.72
2023-03-24T04:25:51.066Z,99151.88
2023-03-24T04:28:28.430Z,99151.47
2023-03-24T04:31:04.441Z,99154.53
2023-03-24T04:33:41.351Z,99162.22
2023-03-24T04:36:22.666Z,99146.22
2023-03-24T04:39:13.872Z,99161.09
2023-03-24T04:41:48.806Z,99162.28
2023-03-24T04:44:26.177Z,99153.28
2023-03-24T04:47:26.902Z,99148.53
2023-03-24T04:50:30.355Z,99156.66
2023-03-24T04:53:01.048Z,99163.75
2023-03-24T04:55:48.587Z,99145.31
2023-03-24T04:58:21.664Z,99162.84
2023-03-24T05:00:51.117Z,99134.66
2023-03-24T05:03:20.409Z,99125.09
2023-03-24T05:05:51.516Z,99126.34
2023-03-24T05:08:20.838Z,99118.00
2023-03-24T05:10:50.327Z,99109.69
2023-03-24T05:13:22.345Z,99118.44
2023-03-24T05:15:59.775Z,99114.50
2023-03-24T05:18:39.982Z,99108.66
2023-03-24T05:21:10.091Z,99101.69
2023-03-24T05:23:38.248Z,99089.38
2023-03-24T05:26:07.338Z,99093.78
2023-03-24T05:28:47.064Z,99106.97
2023-03-24T05:31:15.567Z,99113.06
2023-03-24T05:33:51.463Z,99111.84
2023-03-24T05:36:23.387Z,99098.66
2023-03-24T05:38:56.558Z,99100.38
2023-03-24T05:41:29.584Z,99109.31
2023-03-24T05:43:58.249Z,99109.00
2023-03-24T05:46:26.685Z,99061.50
2023-03-24T05:48:55.724Z,99122.03
2023-03-24T05:51:30.052Z,99112.84
2023-03-24T05:54:06.289Z,99117.31
2023-03-24T05:56:54.870Z,99120.69
2023-03-24T05:59:46.192Z,99120.78
2023-03-24T06:02:34.657Z,99136.75
2023-03-24T06:05:10.243Z,99146.16
2023-03-24T06:07:42.409Z,99149.47
2023-03-24T06:10:14.585Z,99146.72
2023-03-24T06:12:49.334Z,99145.31
2023-03-24T06:15:18.469Z,99151.44
2023-03-24T06:20:05.676Z,99163.09
2023-03-24T06:22:37.562Z,99150.75
2023-03-24T06:25:11.786Z,99150.69
2023-03-24T06:27:46.413Z,99146.75
2023-03-24T06:30:17.815Z,99155.63
2023-03-24T06:32:47.031Z,99159.75
2023-03-24T06:35:19.327Z,99151.91
2023-03-24T06:37:56.577Z,99163.28
2023-03-24T06:40:27.734Z,99156.78
2023-03-24T06:42:59.727Z,99161.75
2023-03-24T06:45:30.159Z,99166.06
2023-03-24T06:47:59.475Z,99176.56
2023-03-24T06:50:33.160Z,99177.44
2023-03-24T06:53:03.600Z,99184.41
2023-03-24T06:55:34.667Z,99178.00
2023-03-24T06:58:05.322Z,99185.94
2023-03-24T07:00:44.608Z,99185.94
2023-03-24T07:03:36.963Z,99189.59
2023-03-24T07:06:18.799Z,99195.31
2023-03-24T07:08:54.787Z,99190.53
2023-03-24T07:11:27.995Z,99189.31
2023-03-24T07:13:59.719Z,99206.31
2023-03-24T07:16:29.620Z,99198.56
2023-03-24T07:19:19.934Z,99210.34
2023-03-24T07:21:57.909Z,99207.19
2023-03-24T07:24:41.242Z,99205.19
2023-03-24T07:27:29.304Z,99194.09
2023-03-24T07:29:57.650Z,99191.22
2023-03-24T07:32:39.170Z,99194.75
2023-03-24T07:35:10.949Z,99198.00
2023-03-24T07:37:41.017Z,99195.72
2023-03-24T07:40:13.296Z,99202.69
2023-03-24T07:42:43.073Z,99167.97
2023-03-24T07:45:31.691Z,99199.81
2023-03-24T07:48:02.809Z,99204.88
2023-03-24T07:50:35.125Z,99205.75
2023-03-24T07:53:10.534Z,99197.22
2023-03-24T07:55:41.742Z,99209.38
2023-03-24T07:58:16.196Z,99205.66
2023-03-24T08:01:00.326Z,99209.97
2023-03-24T08:03:38.768Z,99211.03
2023-03-24T08:06:19.998Z,99213.69
2023-03-24T08:08:55.789Z,99229.47
2023-03-24T08:11:25.937Z,99220.56
2023-03-24T08:13:54.340Z,99219.06
2023-03-24T08:16:24.567Z,99218.75
2023-03-24T08:18:53.064Z,99226.59
2023-03-24T08:21:21.402Z,99221.94
2023-03-24T08:23:49.496Z,99232.72
2023-03-24T08:26:19.315Z,99225.47
2023-03-24T08:28:47.399Z,99228.22
2023-03-24T08:31:18.747Z,99224.59
2023-03-24T08:33:47.383Z,99225.53
2023-03-24T08:36:15.821Z,99219.81
2023-03-24T08:38:44.105Z,99226.22
2023-03-24T08:41:12.616Z,99211.22
2023-03-24T08:43:42.119Z,99222.56
2023-03-24T08:46:13.281Z,99223.44
2023-03-24T08:48:45.024Z,99214.66
2023-03-24T08:51:14.988Z,99225.38
2023-03-24T08:53:45.668Z,99214.34
2023-03-24T08:56:14.084Z,99222.50
2023-03-24T08:58:46.466Z,99219.44
2023-03-24T09:01:18.002Z,99215.78
2023-03-24T09:03:47.002Z,99223.81
2023-03-24T09:06:16.706Z,99215.13
2023-03-24T09:08:44.796Z,99228.53
2023-03-24T09:11:17.162Z,99219.50
2023-03-24T09:13:47.271Z,99223.53
2023-03-24T09:16:19.026Z,99233.78
2023-03-24T09:18:47.557Z,99231.28
2023-03-24T09:21:18.280Z,99229.94
2023-03-24T09:23:46.404Z,99235.25
2023-03-24T09:26:14.725Z,99231.50
2023-03-24T09:28:42.879Z,99229.63
2023-03-24T09:31:13.069Z,99245.50
2023-03-24T09:33:41.205Z,99241.88
2023-03-24T09:36:12.945Z,99239.69
2023-03-24T09:38:41.473Z,99234.53
2023-03-24T09:41:18.392Z,99255.00
2023-03-24T09:43:52.193Z,99250.44
2023-03-24T09:49:23.521Z,99251.38
2023-03-24T09:51:56.794Z,99259.44
2023-03-24T09:54:29.786Z,99243.13
2023-03-24T09:56:59.436Z,99238.72
2023-03-24T09:59:35.994Z,99257.28
2023-03-24T10:02:12.576Z,99251.69
2023-03-24T10:04:41.057Z,99269.59
2023-03-24T10:07:19.296Z,99265.94
2023-03-24T10:09:51.753Z,99276.28
2023-03-24T10:12:33.470Z,99278.59
2023-03-24T10:15:34.702Z,99280.22
2023-03-24T10:18:18.479Z,99270.88
2023-03-24T10:20:52.468Z,99275.72
2023-03-24T10:23:28.304Z,99269.13
2023-03-24T10:26:04.835Z,99267.16
2023-03-24T10:28:39.588Z,99277.59
2023-03-24T10:31:12.908Z,99275.19
2023-03-24T10:33:48.422Z,99295.06
2023-03-24T10:36:19.176Z,99307.56
2023-03-24T10:38:47.712Z,99330.31
2023-03-24T10:41:19.241Z,99329.59
2023-03-24T10:43:51.918Z,99341.59
2023-03-24T10:46:23.377Z,99360.56
2023-03-24T10:49:10.206Z,99349.97
2023-03-24T10:51:38.565Z,99356.19
2023-03-24T10:54:16.868Z,99358.16
2023-03-24T10:56:48.667Z,99368.97
2023-03-24T10:59:28.882Z,99376.41
2023-03-24T11:56:56.335Z,99392.34
2023-03-24T11:59:34.512Z,99379.31
2023-03-24T12:02:13.079Z,99361.75
2023-03-24T12:05:04.910Z,99361.34
2023-03-24T12:08:02.206Z,99371.47
2023-03-24T12:10:44.408Z,99360.84
2023-03-24T12:13:30.002Z,99373.03
2023-03-24T12:16:15.088Z,99376.03
2023-03-24T12:19:11.400Z,99354.78
2023-03-24T12:21:55.122Z,99359.63
2023-03-24T12:24:39.283Z,99371.00
2023-03-24T12:27:19.182Z,99372.19
2023-03-24T12:30:00.726Z,99363.94
2023-03-24T12:32:42.026Z,99359.97
2023-03-24T12:38:41.277Z,99353.22
2023-03-24T12:41:37.074Z,99351.06
2023-03-24T12:44:23.236Z,99338.78
2023-03-24T12:47:04.946Z,99340.38
2023-03-24T12:49:57.130Z,99353.97
2023-03-24T12:52:42.094Z,99354.13
2023-03-24T12:55:14.364Z,99370.56
2023-03-24T12:57:48.460Z,99364.31
2023-03-24T13:00:23.729Z,99370.25
2023-03-24T13:02:57.641Z,99369.06
2023-03-24T13:05:32.580Z,99356.16
2023-03-24T13:08:05.248Z,99348.75
2023-03-24T13:10:40.517Z,99348.13
2023-03-24T13:13:14.085Z,99353.19
2023-03-24T13:15:49.136Z,99339.16
2023-03-24T13:18:31.001Z,99334.41
2023-03-24T13:21:04.661Z,99342.53
2023-03-24T13:23:41.451Z,99345.50
2023-03-24T13:26:20.518Z,99342.66
2023-03-24T13:28:57.628Z,99349.75
2023-03-24T13:31:33.056Z,99347.53
2023-03-24T13:34:05.462Z,99344.41
2023-03-24T13:36:44.303Z,99350.66
2023-03-24T13:39:18.291Z,99333.84
2023-03-24T13:41:51.923Z,99350.88
2023-03-24T13:44:23.267Z,99337.91
2023-03-24T13:47:14.618Z,99331.53
2023-03-24T13:49:56.798Z,99342.75
2023-03-24T13:52:30.193Z,99342.78
2023-03-24T13:54:59.693Z,99343.69
2023-03-24T13:57:28.396Z,99338.88
2023-03-24T14:00:09.037Z,99333.81
2023-03-24T14:02:49.968Z,99323.09
2023-03-24T14:05:35.251Z,99330.44
2023-03-24T14:08:18.604Z,99319.47
2023-03-24T14:10:51.614Z,99322.22
2023-03-24T14:13:34.089Z,99333.50
2023-03-24T14:16:36.876Z,99319.16
2023-03-24T14:19:22.195Z,99321.41
2023-03-24T14:22:00.269Z,99328.81
2023-03-24T14:24:33.694Z,99323.13
2023-03-24T14:27:01.831Z,99328.25
2023-03-24T14:29:43.220Z,99324.88
2023-03-24T14:32:20.605Z,99309.78
2023-03-24T14:34:56.990Z,99319.50
2023-03-24T14:37:28.543Z,99330.00
2023-03-24T14:40:00.153Z,99325.13
2023-03-24T14:43:21.029Z,99317.91
2023-03-24T14:46:00.011Z,99306.75
2023-03-24T14:48:56.291Z,99318.25
2023-03-24T14:51:37.562Z,99313.28
2023-03-24T14:54:16.673Z,99325.94
2023-03-24T14:56:50.308Z,99317.69
2023-03-24T14:59:30.908Z,99315.78
2023-03-24T15:02:07.116Z,99324.09
2023-03-24T15:04:39.544Z,99324.06
2023-03-24T15:07:07.962Z,99312.19
2023-03-24T15:09:39.801Z,99311.56
2023-03-24T15:12:08.138Z,99304.47
2023-03-24T15:14:37.115Z,99306.50
2023-03-24T15:17:17.383Z,99314.13
2023-03-24T15:19:52.541Z,99303.31
2023-03-24T15:22:23.188Z,99307.38
2023-03-24T15:24:59.690Z,99300.91
2023-03-24T15:27:31.736Z,99306.78
2023-03-24T15:30:05.090Z,99297.97
2023-03-24T15:32:39.180Z,99290.13
2023-03-24T15:35:08.954Z,99296.00
2023-03-24T15:37:43.001Z,99297.06
2023-03-24T15:40:34.672Z,99297.25
2023-03-24T15:43:04.721Z,99291.09
2023-03-24T15:45:35.007Z,99291.72
2023-03-24T15:48:09.092Z,99265.06
2023-03-24T15:50:39.268Z,99302.03
2023-03-24T15:53:24.675Z,99294.28
2023-03-24T15:56:18.913Z,99294.22
2023-03-24T15:58:58.173Z,99294.75
2023-03-24T16:01:36.325Z,99286.59
2023-03-24T16:04:07.985Z,99296.91
2023-03-24T16:06:38.637Z,99298.66
2023-03-24T16:09:10.678Z,99295.03
2023-03-24T16:11:43.638Z,99293.28
2023-03-24T16:14:22.624Z,99295.97
2023-03-24T16:16:55.127Z,99293.69
2023-03-24T16:22:10.473Z,99301.47
2023-03-24T16:24:38.571Z,99290.09
2023-03-24T16:27:07.257Z,99302.63
2023-03-24T16:29:36.836Z,99299.28
2023-03-24T16:32:06.894Z,99297.09
2023-03-24T16:34:36.684Z,99291.75
2023-03-24T16:37:08.226Z,99305.72
2023-03-24T16:39:38.523Z,99295.16
2023-03-24T16:42:07.280Z,99304.63
2023-03-24T16:44:35.633Z,99299.16
2023-03-24T16:47:09.788Z,99299.16
2023-03-24T16:49:41.398Z,99300.22
2023-03-24T16:52:14.074Z,99298.41
2023-03-24T16:54:42.484Z,99302.81
2023-03-24T16:57:13.005Z,99307.53
2023-03-24T16:59:41.902Z,99304.09
2023-03-24T17:02:11.553Z,99309.34
2023-03-24T17:04:41.228Z,99305.19
2023-03-24T17:07:09.627Z,99310.63
2023-03-24T17:09:41.420Z,99311.25
2023-03-24T17:12:10.759Z,99309.03
2023-03-24T17:14:38.806Z,99316.31
2023-03-24T17:17:12.133Z,99321.03
2023-03-24T17:19:42.869Z,99326.72
2023-03-24T17:22:12.796Z,99322.81
2023-03-24T17:24:42.781Z,99326.69
2023-03-24T17:27:14.149Z,99334.28
2023-03-24T17:29:42.329Z,99335.88
2023-03-24T17:32:10.899Z,99343.56
2023-03-24T17:34:46.515Z,99345.03
2023-03-24T17:37:14.867Z,99357.47
2023-03-24T17:39:44.422Z,99357.66
2023-03-24T17:42:14.785Z,99354.91
2023-03-24T17:44:42.942Z,99363.34
2023-03-24T17:47:11.034Z,99361.81
2023-03-24T17:49:39.249Z,99369.38
2023-03-24T17:52:07.444Z,99380.50
2023-03-24T17:54:37.970Z,99388.91
2023-03-24T17:57:07.608Z,99389.03
2023-03-24T17:59:37.243Z,99393.16
2023-03-24T18:02:05.999Z,99389.69
2023-03-24T18:04:34.732Z,99392.06
2023-03-24T18:07:02.946Z,99387.44
2023-03-24T18:09:33.772Z,99390.00
2023-03-24T18:12:01.969Z,99388.91
2023-03-24T18:14:31.888Z,99389.63
2023-03-24T18:17:00.418Z,99389.50
2023-03-24T18:19:28.635Z,99381.09
2023-03-24T18:21:56.743Z,99376.47
2023-03-24T18:24:25.786Z,99372.00
2023-03-24T18:26:54.250Z,99374.16
2023-03-24T18:29:23.236Z,99374.00
2023-03-24T18:31:55.734Z,99375.53
2023-03-24T18:34:24.249Z,99379.53
2023-03-24T18:36:52.915Z,99380.72
2023-03-24T18:39:24.166Z,99384.59
2023-03-24T18:41:53.628Z,99380.94
2023-03-24T18:44:22.685Z,99386.56
2023-03-24T18:46:50.895Z,99386.72
2023-03-24T18:49:20.509Z,99386.00
2023-03-24T18:51:48.700Z,99383.00
2023-03-24T18:54:21.845Z,99386.72
2023-03-24T18:56:50.528Z,99395.91
2023-03-24T18:59:21.264Z,99397.19
2023-03-24T19:01:50.559Z,99397.72
2023-03-24T19:04:20.246Z,99402.34
2023-03-24T19:06:50.365Z,99405.19
2023-03-24T19:09:23.071Z,99402.84
2023-03-24T19:11:51.768Z,99402.19
2023-03-24T19:14:20.377Z,99401.31
2023-03-24T19:16:48.513Z,99417.94
2023-03-24T19:19:18.751Z,99438.25
2023-03-24T19:21:48.355Z,99452.00
2023-03-24T19:24:19.367Z,99479.22
2023-03-24T19:26:48.269Z,99491.38
2023-03-24T19:29:18.886Z,99484.44
2023-03-24T19:31:47.170Z,99484.94
2023-03-24T19:34:15.728Z,99482.31
2023-03-24T19:36:46.403Z,99472.44
2023-03-24T19:39:20.345Z,99429.63
2023-03-24T19:41:48.410Z,99467.50
2023-03-24T19:44:16.807Z,99467.34
2023-03-24T19:46:45.247Z,99470.72
2023-03-24T19:49:16.926Z,99468.63
2023-03-24T19:51:52.414Z,99465.72
2023-03-24T19:54:25.317Z,99466.19
2023-03-24T19:56:55.620Z,99463.09
2023-03-24T19:59:24.147Z,99462.53
2023-03-24T20:01:52.938Z,99456.34
2023-03-24T20:04:21.406Z,99442.50
2023-03-24T20:06:52.421Z,99440.13
2023-03-24T20:09:22.199Z,99433.91
2023-03-24T20:11:52.949Z,99422.53
2023-03-24T20:14:21.728Z,99414.03
2023-03-24T20:16:54.971Z,99426.53
2023-03-24T20:19:23.465Z,99418.94
2023-03-24T20:21:51.644Z,99418.56
2023-03-24T20:24:20.068Z,99417.94
2023-03-24T20:26:49.723Z,99420.66
2023-03-24T20:29:18.216Z,99386.72
2023-03-24T20:31:47.070Z,99421.91
2023-03-24T20:34:16.322Z,99440.34
2023-03-24T20:36:46.944Z,99446.84
2023-03-24T20:39:15.455Z,99458.09
2023-03-24T20:41:44.032Z,99473.94
2023-03-24T20:44:13.598Z,99476.81
2023-03-24T20:46:42.865Z,99481.94
2023-03-24T20:49:16.464Z,99481.63
2023-03-24T20:51:47.565Z,99487.53
2023-03-24T20:54:16.020Z,99493.44
2023-03-24T20:56:44.751Z,99502.88
2023-03-24T20:59:14.412Z,99518.78
2023-03-24T21:01:48.742Z,99516.22
2023-03-24T21:04:19.876Z,99519.34
2023-03-24T21:06:48.188Z,99503.09
2023-03-24T21:09:17.018Z,99494.78
2023-03-24T21:11:46.261Z,99476.47
2023-03-24T21:14:18.481Z,99456.38
2023-03-24T21:16:47.621Z,99444.09
2023-03-24T21:19:16.415Z,99452.19
2023-03-24T21:23:09.068Z,99438.25
2023-03-24T21:25:38.458Z,99457.09
2023-03-24T21:28:06.745Z,99452.84
2023-03-24T21:30:34.839Z,99453.06
2023-03-24T21:33:03.656Z,99462.09
2023-03-24T21:35:32.121Z,99461.50
2023-03-24T21:38:01.329Z,99475.75
2023-03-24T21:40:31.994Z,99483.47
2023-03-24T21:43:05.021Z,99471.81
2023-03-24T21:45:37.048Z,99476.34
2023-03-24T21:48:07.534Z,99479.47
2023-03-24T21:50:39.049Z,99477.03
2023-03-24T21:53:15.333Z,99486.53
2023-03-24T21:55:52.668Z,99490.88
2023-03-24T21:58:21.810Z,99487.81
2023-03-24T22:00:52.351Z,99482.97
2023-03-24T22:03:21.800Z,99480.88
2023-03-24T22:05:50.362Z,99481.00
2023-03-24T22:08:22.687Z,99481.66
2023-03-24T22:10:58.230Z,99482.78
2023-03-24T22:13:26.774Z,99483.34
2023-03-24T22:15:56.000Z,99475.50
2023-03-24T22:18:27.666Z,99484.31
2023-03-24T22:20:57.395Z,99478.16
2023-03-24T22:23:25.510Z,99487.69
2023-03-24T22:25:57.871Z,99484.16
2023-03-24T22:28:26.001Z,99486.53
2023-03-24T22:30:54.278Z,99490.13
2023-03-24T22:33:25.528Z,99494.31
2023-03-24T22:35:57.572Z,99489.78
2023-03-24T22:38:26.652Z,99495.84
2023-03-24T22:40:59.458Z,99498.53
2023-03-24T22:43:33.096Z,99504.78
2023-03-24T22:46:01.407Z,99503.31
2023-03-24T22:48:29.918Z,99472.88
2023-03-24T22:50:58.089Z,99497.19
2023-03-24T22:53:28.995Z,99491.88
2023-03-24T22:55:58.537Z,99491.94
2023-03-24T22:58:29.225Z,99484.94
2023-03-24T23:00:58.314Z,99484.19
2023-03-24T23:03:26.699Z,99496.34
2023-03-24T23:05:55.191Z,99480.22
2023-03-24T23:08:24.956Z,99487.34
2023-03-24T23:10:54.164Z,99483.75
2023-03-24T23:13:23.893Z,99473.16
2023-03-24T23:15:53.552Z,99477.16
2023-03-24T23:18:23.953Z,99496.69
2023-03-24T23:21:03.184Z,99488.25
2023-03-24T23:23:31.781Z,99506.75
2023-03-24T23:26:00.025Z,99496.25
2023-03-24T23:28:29.851Z,99512.22
2023-03-24T23:31:00.671Z,99522.78
2023-03-24T23:33:29.397Z,99526.19
2023-03-24T23:36:01.232Z,99521.13
2023-03-24T23:38:29.993Z,99519.56
2023-03-24T23:40:58.383Z,99506.28
2023-03-24T23:43:30.086Z,99524.88
2023-03-24T23:45:58.361Z,99536.59
2023-03-24T23:48:26.727Z,99536.97
2023-03-24T23:50:57.863Z,99532.09
2023-03-24T23:53:27.054Z,99534.03
2023-03-24T23:55:57.343Z,99543.41
2023-03-24T23:58:27.120Z,99542.16
